Terminal Aerodrome Forecast
Issued by NWS Wilmington, OH

Current Version | Previous Version | Graphics & Text | Print | Product List | Glossary On
Versions: 1 2 3 4 5 6 7 8 9 10 11 12 13 14 15 16
000
FTUS41 KILN 200700 AAA
TAFCMH
TAF AMD
KCMH 200746Z 2008/2106 28015KT P6SM OVC035
      TEMPO 2008/2010 OVC028
     FM201500 26013G22KT P6SM SCT035
     FM201800 26015G24KT P6SM OVC035
     FM210000 26013KT P6SM OVC030=

USA.gov is the U.S. government's official web portal to all federal, state and local government web resources and services.